createdAt,value
2022-09-30T00:00:26.049Z,8.50
2022-09-30T00:03:14.383Z,8.50
2022-09-30T00:05:42.165Z,8.50
2022-09-30T00:08:10.128Z,8.47
2022-09-30T00:10:37.781Z,8.37
2022-09-30T00:13:05.518Z,8.25
2022-09-30T00:15:33.264Z,8.13
2022-09-30T00:18:00.957Z,8.07
2022-09-30T00:20:28.853Z,8.06
2022-09-30T00:22:57.145Z,8.03
2022-09-30T00:25:24.952Z,8.01
2022-09-30T00:27:52.584Z,8.01
2022-09-30T00:30:20.220Z,8.02
2022-09-30T00:32:48.168Z,8.04
2022-09-30T00:35:20.446Z,8.08
2022-09-30T00:37:50.209Z,8.14
2022-09-30T00:40:20.273Z,8.20
2022-09-30T00:42:48.051Z,8.24
2022-09-30T00:45:17.999Z,8.27
2022-09-30T00:47:55.303Z,8.30
2022-09-30T00:50:46.056Z,8.32
2022-09-30T00:53:24.912Z,8.28
2022-09-30T00:56:20.709Z,8.22
2022-09-30T00:58:59.812Z,8.15
2022-09-30T01:01:27.964Z,8.10
2022-09-30T01:04:00.602Z,8.09
2022-09-30T01:06:28.921Z,8.09
2022-09-30T01:08:58.558Z,8.10
2022-09-30T01:11:27.832Z,8.12
2022-09-30T01:14:17.405Z,8.14
2022-09-30T01:17:16.574Z,8.14
2022-09-30T01:20:09.196Z,8.14
2022-09-30T01:22:42.191Z,8.09
2022-09-30T01:25:38.356Z,8.12
2022-09-30T01:28:30.180Z,8.20
2022-09-30T01:31:02.197Z,8.29
2022-09-30T01:33:42.130Z,8.36
2022-09-30T01:36:28.542Z,8.37
2022-09-30T01:38:59.076Z,8.43
2022-09-30T01:41:54.527Z,8.46
2022-09-30T01:44:32.053Z,8.40
2022-09-30T01:47:12.008Z,8.31
2022-09-30T01:49:47.535Z,8.30
2022-09-30T01:52:30.461Z,8.37
2022-09-30T01:55:08.143Z,8.42
2022-09-30T01:57:45.464Z,8.54
2022-09-30T02:00:13.652Z,8.68
2022-09-30T02:02:49.161Z,8.80
2022-09-30T02:05:25.047Z,8.89
2022-09-30T02:08:01.246Z,8.98
2022-09-30T02:10:35.672Z,9.05
2022-09-30T02:13:09.579Z,9.12
2022-09-30T02:15:41.674Z,9.17
2022-09-30T02:18:20.366Z,9.23
2022-09-30T02:20:52.695Z,9.27
2022-09-30T02:23:25.934Z,9.25
2022-09-30T02:26:07.203Z,9.23
2022-09-30T02:28:39.526Z,9.18
2022-09-30T02:31:08.836Z,9.16
2022-09-30T02:34:18.856Z,9.13
2022-09-30T02:36:46.443Z,9.13
2022-09-30T02:39:21.524Z,9.10
2022-09-30T02:41:53.246Z,9.10
2022-09-30T02:44:21.103Z,9.06
2022-09-30T02:46:48.886Z,8.99
2022-09-30T02:49:29.443Z,8.94
2022-09-30T02:52:15.847Z,8.89
2022-09-30T02:54:55.750Z,8.89
2022-09-30T02:57:55.822Z,8.92
2022-09-30T03:00:24.215Z,8.92
2022-09-30T03:02:56.446Z,8.92
2022-09-30T03:05:24.096Z,8.90
2022-09-30T03:07:52.077Z,8.90
2022-09-30T03:10:20.117Z,8.92
2022-09-30T03:13:15.985Z,8.93
2022-09-30T03:15:53.575Z,8.93
2022-09-30T03:18:58.694Z,8.94
2022-09-30T03:21:58.827Z,8.93
2022-09-30T03:24:49.886Z,8.95
2022-09-30T03:27:36.013Z,8.94
2022-09-30T03:30:09.923Z,8.92
2022-09-30T03:32:37.647Z,8.88
2022-09-30T03:35:31.063Z,8.87
2022-09-30T03:38:02.523Z,8.83
2022-09-30T03:40:59.968Z,8.82
2022-09-30T03:43:31.650Z,8.81
2022-09-30T03:46:08.827Z,8.79
2022-09-30T03:48:38.766Z,8.78
2022-09-30T03:51:06.312Z,8.75
2022-09-30T03:53:41.438Z,8.69
2022-09-30T03:56:09.353Z,8.69
2022-09-30T03:58:42.269Z,8.69
2022-09-30T04:01:20.060Z,8.70
2022-09-30T04:03:52.442Z,8.67
2022-09-30T04:06:22.748Z,8.63
2022-09-30T04:08:50.829Z,8.59
2022-09-30T04:11:18.669Z,8.56
2022-09-30T04:13:46.461Z,8.49
2022-09-30T04:16:14.272Z,8.38
2022-09-30T04:18:42.423Z,8.33
2022-09-30T04:21:12.738Z,8.31
2022-09-30T04:23:41.969Z,8.30
2022-09-30T04:26:13.163Z,8.31
2022-09-30T04:28:41.247Z,8.32
2022-09-30T04:31:11.929Z,8.35
2022-09-30T04:33:40.403Z,8.37
2022-09-30T04:36:08.158Z,8.39
2022-09-30T04:38:35.910Z,8.39
2022-09-30T04:41:06.843Z,8.40
2022-09-30T04:43:34.806Z,8.37
2022-09-30T04:46:02.853Z,8.36
2022-09-30T04:48:32.454Z,8.34
2022-09-30T04:51:00.928Z,8.30
2022-09-30T04:53:29.300Z,8.25
2022-09-30T04:56:01.184Z,8.17
2022-09-30T04:58:33.368Z,7.96
2022-09-30T05:01:03.875Z,7.65
2022-09-30T05:03:31.818Z,7.49
2022-09-30T05:05:59.906Z,7.38
2022-09-30T05:08:27.758Z,7.46
2022-09-30T05:10:57.782Z,7.56
2022-09-30T05:13:31.845Z,7.70
2022-09-30T05:16:00.334Z,7.86
2022-09-30T05:18:29.153Z,8.02
2022-09-30T05:20:57.737Z,8.17
2022-09-30T05:23:27.127Z,8.32
2022-09-30T05:25:56.031Z,8.47
2022-09-30T05:28:24.658Z,8.61
2022-09-30T05:31:03.544Z,8.67
2022-09-30T05:33:32.027Z,8.76
2022-09-30T05:36:04.937Z,8.85
2022-09-30T05:38:33.767Z,8.86
2022-09-30T05:41:13.104Z,8.86
2022-09-30T05:43:42.767Z,8.92
2022-09-30T05:46:10.573Z,9.03
2022-09-30T05:48:38.255Z,9.17
2022-09-30T05:51:06.451Z,9.30
2022-09-30T05:53:38.677Z,9.42
2022-09-30T05:56:07.733Z,9.55
2022-09-30T05:58:36.475Z,9.69
2022-09-30T06:01:12.801Z,9.80
2022-09-30T06:03:43.514Z,9.92
2022-09-30T06:06:11.696Z,9.98
2022-09-30T06:08:40.425Z,10.04
2022-09-30T06:11:11.938Z,10.17
2022-09-30T06:13:41.374Z,10.30
2022-09-30T06:16:10.572Z,10.44
2022-09-30T06:18:41.247Z,10.58
2022-09-30T06:21:12.265Z,10.71
2022-09-30T06:23:40.514Z,10.87
2022-09-30T06:26:11.728Z,10.96
2022-09-30T06:28:40.160Z,11.01
2022-09-30T06:31:08.573Z,11.06
2022-09-30T06:33:36.410Z,11.05
2022-09-30T06:36:04.798Z,10.99
2022-09-30T06:38:34.208Z,11.00
2022-09-30T06:41:01.937Z,10.97
2022-09-30T06:43:29.798Z,10.94
2022-09-30T06:46:10.654Z,11.01
2022-09-30T06:48:41.676Z,11.39
2022-09-30T06:51:12.365Z,11.80
2022-09-30T06:53:40.308Z,12.21
2022-09-30T06:56:08.220Z,12.53
2022-09-30T06:58:36.230Z,12.84
2022-09-30T07:01:06.435Z,13.13
2022-09-30T07:03:36.136Z,13.33
2022-09-30T07:06:04.542Z,13.50
2022-09-30T07:08:34.257Z,13.60
2022-09-30T07:11:04.437Z,13.74
2022-09-30T07:13:33.215Z,13.87
2022-09-30T07:16:01.645Z,14.07
2022-09-30T07:18:29.502Z,14.29
2022-09-30T07:20:57.328Z,14.64
2022-09-30T07:23:27.212Z,15.06
2022-09-30T07:26:01.082Z,15.36
2022-09-30T07:28:33.129Z,15.16
2022-09-30T07:31:31.205Z,14.81
2022-09-30T07:33:56.739Z,14.53
2022-09-30T07:36:33.057Z,14.58
2022-09-30T07:39:07.437Z,14.94
2022-09-30T07:41:38.917Z,15.25
2022-09-30T07:44:14.380Z,15.43
2022-09-30T07:46:43.953Z,15.52
2022-09-30T07:49:24.420Z,15.61
2022-09-30T07:51:55.591Z,15.71
2022-09-30T07:54:26.557Z,15.80
2022-09-30T07:57:09.628Z,15.90
2022-09-30T07:59:40.931Z,16.02
2022-09-30T08:02:16.225Z,16.17
2022-09-30T08:04:44.945Z,16.38
2022-09-30T08:07:14.478Z,16.54
2022-09-30T08:09:42.378Z,16.27
2022-09-30T08:12:10.233Z,16.13
2022-09-30T08:14:38.029Z,16.31
2022-09-30T08:17:06.318Z,16.42
2022-09-30T08:19:35.341Z,16.15
2022-09-30T08:24:36.082Z,16.27
2022-09-30T08:27:03.971Z,16.59
2022-09-30T08:32:21.827Z,16.31
2022-09-30T08:34:49.817Z,15.96
2022-09-30T08:37:18.427Z,15.98
2022-09-30T08:39:48.466Z,16.22
2022-09-30T08:42:37.452Z,16.35
2022-09-30T08:45:18.906Z,16.38
2022-09-30T08:48:28.867Z,16.47
2022-09-30T08:51:10.195Z,16.64
2022-09-30T08:53:41.838Z,16.82
2022-09-30T08:56:23.771Z,17.00
2022-09-30T08:58:57.007Z,16.94
2022-09-30T09:01:40.734Z,16.46
2022-09-30T09:04:08.824Z,15.92
2022-09-30T09:06:45.252Z,15.59
2022-09-30T09:09:38.979Z,15.76
